00:31
Airports
History
Links
Donate
Help keep this website running!
PayPal
Bitcoin
Information on this page is community maintained and may be outdated or inaccurate and is intended for reference only or PC simulator navigating!
Always use approved charts for navigating.
1IA6
Aero-Lane
Aero-Lane (1IA6)
Randolph, Iowa, United States (51649)
4
Lat/Lng:40° 53' 5.99" N / 95° 29' 6.98" W
40.884998 / -95.485272
Elevation:1134'ft 346mMSL
ID / ICAO:1IA6
Runways:1
Longest:(02-20) 434.5m 1,426ft Grass
Distance To
Airport ID:
Nearby VORs <50NM
Nearby NDBs
Nearby WeatherUpdated 05-01-17 00:15 GMT
Nearby weather at KSDA, Shenandoah Muni located 9.9 nautical miles from 1IA6
Altimeter: 29.49
Visibility: 10.0 statute miles
Wind: 15 knots (030°)
Temp: 8°c 46°f
Humidity: 93.4%

METAR: KSDA 010015Z AUTO 03015KT 10SM BKN009 BKN013 OVC017 08/07 A2949 RMK AO2

(Powered by phpweather)
Runway 02 / 20
Dimensions:434.5 x 15.2m 1426' x 50'ft
Surface:Grass
Runway 02 [A]Runway 20 [B]
Heading:025°TH 205°TH
Lat:
Lng:
40° 52' 59.62"N
95° 29' 10.91"W
40° 53' 12.37"N
95° 29' 3.05"W
Google Map
Nearby Airports
(U) Shenandoah Muni 9.9 NM
KSDA (WX) SSE 157°
(U) Red Oak Muni 14.7 NM
KRDK (WX) NE 53°
4 Cole 22.9 NM
NE77 WNW 283°
(U) Plattsmouth Muni 23.0 NM
KPMV W 280°
4 Roll Bros 24.3 NM
K10 SW 227°
4 Jacobs 24.5 NM
4IA6 NE 56°
(U) Grundman 25.2 NM
3GN SW 231°
VFR Chart
Flight Planning at SkyVector.com